Caspar, CA (95420)

4:17 PM PST on December 08, 2016 (GMT -0800)
Caspar Headlands | | Change Station

Elev 69 ft 39.37 °N, 123.82 °W | Updated 30 seconds ago

Overcast
Overcast
54.1 °F
Feels Like 54.1 °F
N
4.7
Wind Variable Wind from SE

Today
High -- | Low -- °F
--% Chance of Precip.
Yesterday
High -- | Low -- °F
Precip. -- in
Pressure 30.11 in
Visibility 2.0 miles
Clouds Overcast 1300 ft
Dew Point 54 °F
Humidity 99%
Rainfall 0.09 in
Snow Depth Not available.
7:22 AM 4:51 PM
Waxing Gibbous, 68% visible
SPECI KUKI 090014Z AUTO 31003KT 2SM -RA BR OVC013 09/08 A3011 RMK AO2 RAB06 P0001 T00890083
Pressure 30.11 in
Visibility 2.0 miles
Clouds Overcast 1300 ft
Dew Point 54 °F
Humidity 99%
Rainfall 0.09 in
Snow Depth Not available.
7:22 AM 4:51 PM
Waxing Gibbous, 68% visible
SPECI KUKI 090014Z AUTO 31003KT 2SM -RA BR OVC013 09/08 A3011 RMK AO2 RAB06 P0001 T00890083

10-Day Weather Forecast

Almanac

Astronomy

Dec. 08, 2016 Rise Set
Actual Time
Civil Twilight
Nautical Twilight
Astronomical Twilight
Moon
Length of Visible Light
Length of Day
Tomorrow will be .
, % of the Moon is Illuminated

Today's Extremes

State Highs State Lows

Community

WunderPhotos

Upload Photos

1,956,277 photos uploaded!

WunderBlog® & News

Nearby

Air Quality

  Air Quality AQ Index Pollutant
Not available.

Snow Depth

Station Depth Elevation

Earthquake Activity

City Distance Mag. Time & Date
Minimum magnitude displayed is 2.5.

Coastal Water Temperatures

Place Temperature

Stations

Nearby Weather Stations

Station Location Temp. Windchill Dew Point Humidity Wind Precip. Elev Updated Type
                   

Watches & Warnings

There are currently no watches in effect.